createdAt,value
2023-09-21T00:02:07.782Z,61.63
2023-09-21T00:05:10.864Z,61.92
2023-09-21T00:08:14.207Z,61.74
2023-09-21T00:11:18.063Z,61.46
2023-09-21T00:14:20.793Z,61.61
2023-09-21T00:17:24.139Z,61.45
2023-09-21T00:20:37.739Z,61.43
2023-09-21T00:23:41.042Z,61.35
2023-09-21T00:26:48.605Z,61.59
2023-09-21T00:29:51.858Z,61.71
2023-09-21T00:32:54.933Z,61.97
2023-09-21T00:36:01.267Z,62.17
2023-09-21T00:39:05.242Z,62.10
2023-09-21T00:42:08.461Z,62.41
2023-09-21T00:45:11.567Z,62.70
2023-09-21T00:48:15.358Z,63.01
2023-09-21T00:51:18.648Z,63.12
2023-09-21T00:54:22.773Z,63.35
2023-09-21T00:57:25.954Z,63.39
2023-09-21T01:00:31.990Z,63.12
2023-09-21T01:03:39.576Z,63.09
2023-09-21T01:06:44.069Z,63.37
2023-09-21T01:09:47.072Z,63.32
2023-09-21T01:12:52.534Z,63.33
2023-09-21T01:16:03.022Z,63.35
2023-09-21T01:19:06.300Z,64.27
2023-09-21T01:22:13.397Z,64.23
2023-09-21T01:25:16.944Z,64.39
2023-09-21T01:28:24.567Z,64.38
2023-09-21T01:31:28.575Z,64.68
2023-09-21T01:34:32.511Z,64.82
2023-09-21T01:37:36.831Z,65.16
2023-09-21T01:40:41.542Z,65.46
2023-09-21T01:43:46.092Z,65.81
2023-09-21T01:46:51.343Z,66.29
2023-09-21T01:49:55.109Z,66.48
2023-09-21T01:52:58.033Z,66.62
2023-09-21T01:56:01.270Z,66.65
2023-09-21T01:59:05.231Z,66.72
2023-09-21T02:02:08.298Z,66.62
2023-09-21T02:05:12.268Z,66.92
2023-09-21T02:08:19.266Z,66.95
2023-09-21T02:11:22.460Z,67.01
2023-09-21T02:14:25.277Z,66.91
2023-09-21T02:17:28.991Z,67.01
2023-09-21T02:20:33.367Z,67.15
2023-09-21T02:23:38.967Z,67.14
2023-09-21T02:26:44.231Z,67.09
2023-09-21T02:29:48.211Z,66.72
2023-09-21T02:32:57.353Z,66.80
2023-09-21T02:36:02.749Z,66.56
2023-09-21T02:39:13.040Z,66.74
2023-09-21T02:42:16.364Z,66.73
2023-09-21T02:45:22.595Z,66.33
2023-09-21T02:48:26.723Z,66.18
2023-09-21T02:51:30.175Z,66.05
2023-09-21T02:54:33.749Z,66.13
2023-09-21T02:57:36.805Z,66.26
2023-09-21T03:00:44.628Z,66.29
2023-09-21T03:03:48.042Z,66.55
2023-09-21T03:06:53.224Z,66.54
2023-09-21T03:09:56.377Z,66.24
2023-09-21T03:12:59.846Z,65.92
2023-09-21T03:16:06.759Z,65.98
2023-09-21T03:19:09.683Z,65.96
2023-09-21T03:22:14.958Z,65.96
2023-09-21T03:25:17.767Z,66.46
2023-09-21T03:28:24.463Z,66.16
2023-09-21T03:31:27.711Z,66.02
2023-09-21T03:34:30.853Z,66.04
2023-09-21T03:37:33.839Z,65.75
2023-09-21T03:40:36.927Z,65.51
2023-09-21T03:43:39.695Z,65.25
2023-09-21T03:46:43.008Z,64.81
2023-09-21T03:49:45.868Z,64.21
2023-09-21T03:52:50.199Z,63.89
2023-09-21T03:55:53.060Z,63.47
2023-09-21T03:58:57.974Z,63.19
2023-09-21T04:02:02.830Z,63.03
2023-09-21T04:05:08.843Z,62.77
2023-09-21T04:08:12.000Z,62.83
2023-09-21T04:11:15.208Z,63.03
2023-09-21T04:14:19.187Z,62.93
2023-09-21T04:17:22.396Z,62.98
2023-09-21T04:20:25.279Z,63.07
2023-09-21T04:23:29.527Z,63.31
2023-09-21T04:26:32.641Z,63.57
2023-09-21T04:29:35.734Z,63.26
2023-09-21T04:32:40.181Z,63.56
2023-09-21T04:35:43.444Z,63.62
2023-09-21T04:38:49.473Z,63.88
2023-09-21T04:41:52.743Z,63.59
2023-09-21T04:44:56.546Z,63.77
2023-09-21T04:48:05.501Z,64.01
2023-09-21T04:51:14.500Z,64.10
2023-09-21T04:54:18.547Z,64.36
2023-09-21T04:57:22.412Z,64.61
2023-09-21T05:00:25.959Z,64.81
2023-09-21T05:03:29.064Z,64.80
2023-09-21T05:06:32.779Z,65.39
2023-09-21T05:09:35.614Z,65.65
2023-09-21T05:12:39.053Z,65.77
2023-09-21T05:15:42.129Z,65.92
2023-09-21T05:18:46.424Z,66.26
2023-09-21T05:21:49.457Z,66.58
2023-09-21T05:24:53.116Z,66.96
2023-09-21T05:27:56.640Z,67.12
2023-09-21T05:31:00.288Z,67.67
2023-09-21T05:34:03.781Z,67.69
2023-09-21T05:37:07.161Z,67.81
2023-09-21T05:40:12.999Z,68.00
2023-09-21T05:43:16.844Z,67.90
2023-09-21T05:46:19.630Z,67.68
2023-09-21T05:49:25.881Z,67.61
2023-09-21T05:52:30.747Z,67.62
2023-09-21T05:55:33.825Z,67.64
2023-09-21T05:58:37.518Z,67.58
2023-09-21T06:01:41.100Z,67.71
2023-09-21T06:04:45.144Z,67.27
2023-09-21T06:07:48.310Z,67.99
2023-09-21T06:10:51.501Z,67.67
2023-09-21T06:13:55.581Z,68.00
2023-09-21T06:16:59.327Z,67.86
2023-09-21T06:20:02.282Z,67.58
2023-09-21T06:23:08.082Z,67.56
2023-09-21T06:26:11.719Z,67.74
2023-09-21T06:29:14.829Z,67.47
2023-09-21T06:32:19.618Z,67.07
2023-09-21T06:35:26.517Z,66.77
2023-09-21T06:38:29.144Z,66.49
2023-09-21T06:41:32.405Z,65.68
2023-09-21T06:44:35.976Z,64.11
2023-09-21T06:47:39.259Z,62.78
2023-09-21T06:50:42.098Z,61.92
2023-09-21T06:53:46.508Z,61.11
2023-09-21T06:56:49.445Z,60.42
2023-09-21T06:59:55.220Z,59.90
2023-09-21T07:02:58.173Z,59.63
2023-09-21T07:06:01.628Z,60.81
2023-09-21T07:09:05.745Z,61.30
2023-09-21T07:12:09.162Z,61.62
2023-09-21T07:15:12.704Z,61.76
2023-09-21T07:18:16.379Z,61.71
2023-09-21T07:21:19.424Z,61.52
2023-09-21T07:24:22.758Z,61.30
2023-09-21T07:27:26.120Z,62.32
2023-09-21T07:30:34.411Z,63.13
2023-09-21T07:33:38.233Z,64.15
2023-09-21T07:36:41.679Z,64.22
2023-09-21T07:39:45.520Z,65.05
2023-09-21T07:42:51.923Z,65.49
2023-09-21T07:45:55.207Z,66.11
2023-09-21T07:48:58.542Z,66.67
2023-09-21T07:52:01.321Z,66.58
2023-09-21T07:55:05.790Z,66.87
2023-09-21T07:58:09.079Z,67.10
2023-09-21T08:01:13.352Z,66.78
2023-09-21T08:04:18.887Z,67.04
2023-09-21T08:07:27.789Z,67.05
2023-09-21T08:10:34.200Z,66.82
2023-09-21T08:13:37.085Z,66.86
2023-09-21T08:16:40.436Z,66.98
2023-09-21T08:19:43.506Z,66.99
2023-09-21T08:22:49.365Z,66.96
2023-09-21T08:25:52.629Z,67.02
2023-09-21T08:28:56.155Z,67.35
2023-09-21T08:31:59.797Z,67.06
2023-09-21T08:35:02.895Z,67.18
2023-09-21T08:38:05.845Z,66.91
2023-09-21T08:41:09.698Z,66.91
2023-09-21T08:44:13.072Z,66.90
2023-09-21T08:47:33.238Z,66.69
2023-09-21T08:50:39.804Z,66.56
2023-09-21T08:53:43.598Z,66.19
2023-09-21T08:56:49.012Z,66.33
2023-09-21T08:59:56.452Z,66.11
2023-09-21T09:03:01.304Z,66.47
2023-09-21T09:06:05.992Z,67.34
2023-09-21T09:09:09.928Z,69.14
2023-09-21T09:12:26.927Z,69.39
2023-09-21T09:15:38.615Z,71.66
2023-09-21T09:18:42.880Z,72.41
2023-09-21T09:21:51.368Z,73.07
2023-09-21T09:24:57.114Z,73.03
2023-09-21T09:28:03.086Z,73.32
2023-09-21T09:31:12.555Z,73.24
2023-09-21T09:34:19.480Z,73.73
2023-09-21T09:37:22.894Z,72.65
2023-09-21T09:40:27.337Z,72.52
2023-09-21T09:43:31.577Z,72.18
2023-09-21T09:46:43.075Z,72.63
2023-09-21T09:49:50.577Z,72.03
2023-09-21T09:53:04.625Z,71.18
2023-09-21T09:56:11.860Z,70.85
2023-09-21T09:59:15.539Z,70.55
2023-09-21T10:02:20.059Z,69.77
2023-09-21T10:05:28.542Z,68.61
2023-09-21T10:08:32.201Z,68.39
2023-09-21T10:11:35.673Z,67.57
2023-09-21T10:14:43.602Z,66.77
2023-09-21T10:17:52.074Z,65.95
2023-09-21T10:21:01.403Z,65.52
2023-09-21T10:24:14.118Z,64.84
2023-09-21T10:27:17.097Z,64.56
2023-09-21T10:30:24.685Z,63.56
2023-09-21T10:33:27.604Z,61.62
2023-09-21T10:36:32.109Z,61.78
2023-09-21T10:39:35.340Z,60.75
2023-09-21T10:42:38.873Z,60.99
2023-09-21T10:46:18.135Z,61.80
2023-09-21T10:49:24.629Z,62.35
2023-09-21T10:52:31.392Z,62.69
2023-09-21T10:55:36.378Z,62.78
2023-09-21T10:58:39.176Z,61.91
2023-09-21T11:01:43.152Z,60.78
2023-09-21T11:04:48.114Z,56.38
2023-09-21T11:07:53.155Z,51.25
2023-09-21T11:10:56.442Z,47.82
2023-09-21T11:14:00.554Z,47.25
2023-09-21T11:17:03.878Z,45.32
2023-09-21T11:20:09.824Z,44.24
2023-09-21T11:23:13.589Z,42.16
2023-09-21T11:26:17.061Z,41.84
2023-09-21T11:29:20.792Z,42.22
2023-09-21T11:32:24.423Z,41.67
2023-09-21T11:35:27.946Z,42.00
2023-09-21T11:38:34.879Z,40.15
2023-09-21T11:41:38.729Z,39.99
2023-09-21T11:44:42.561Z,40.10
2023-09-21T11:47:53.849Z,38.55
2023-09-21T11:50:57.171Z,38.08
2023-09-21T11:54:01.451Z,36.95
2023-09-21T11:57:06.688Z,38.16
2023-09-21T12:00:14.933Z,37.16
2023-09-21T12:03:21.621Z,37.41
2023-09-21T12:06:29.059Z,37.28
2023-09-21T12:09:32.903Z,39.15
2023-09-21T12:12:36.014Z,39.76
2023-09-21T12:15:43.396Z,39.58
2023-09-21T12:18:46.546Z,39.61
2023-09-21T12:21:49.972Z,39.86
2023-09-21T12:24:52.790Z,42.44
2023-09-21T12:27:56.074Z,44.84
2023-09-21T12:30:59.226Z,46.03
2023-09-21T12:34:04.032Z,45.67
2023-09-21T12:37:06.901Z,45.21
2023-09-21T12:40:14.208Z,45.70
2023-09-21T12:43:17.582Z,45.55
2023-09-21T12:46:21.043Z,46.22
2023-09-21T12:49:23.815Z,44.61
2023-09-21T12:52:27.078Z,47.66
2023-09-21T12:55:30.998Z,49.59
2023-09-21T12:58:34.725Z,48.31
2023-09-21T13:01:38.729Z,47.19
2023-09-21T13:04:43.447Z,46.71
2023-09-21T13:07:49.854Z,48.34
2023-09-21T13:10:53.292Z,48.62
2023-09-21T13:13:56.140Z,50.59
2023-09-21T13:17:01.085Z,51.06
2023-09-21T13:20:06.985Z,49.54
2023-09-21T13:23:10.471Z,49.62
2023-09-21T13:26:14.237Z,48.21
2023-09-21T13:29:19.735Z,47.34
2023-09-21T13:32:24.942Z,46.87
2023-09-21T13:35:27.929Z,47.48
2023-09-21T13:38:30.885Z,47.43
2023-09-21T13:41:34.453Z,47.88
2023-09-21T13:44:37.365Z,46.33
2023-09-21T13:47:41.159Z,46.79
2023-09-21T13:50:44.292Z,48.00
2023-09-21T13:53:47.420Z,47.77
2023-09-21T13:56:50.971Z,48.11
2023-09-21T13:59:56.216Z,49.26
2023-09-21T14:02:59.420Z,49.62
2023-09-21T14:06:03.291Z,48.56
2023-09-21T14:09:06.224Z,48.52
2023-09-21T14:12:09.502Z,50.26
2023-09-21T14:15:12.528Z,51.67
2023-09-21T14:18:16.862Z,51.96
2023-09-21T14:21:23.064Z,52.13
2023-09-21T14:24:26.422Z,52.85
2023-09-21T14:27:29.492Z,53.12
2023-09-21T14:30:33.488Z,53.25
2023-09-21T14:33:36.967Z,54.11
2023-09-21T14:36:42.692Z,54.70
2023-09-21T14:39:45.919Z,55.08
2023-09-21T14:42:49.333Z,55.37
2023-09-21T14:45:52.366Z,56.09
2023-09-21T14:48:56.037Z,56.37
2023-09-21T14:51:59.283Z,54.71
2023-09-21T14:55:02.463Z,54.19
2023-09-21T14:58:05.244Z,53.97
2023-09-21T15:01:09.587Z,54.01
2023-09-21T15:04:12.572Z,54.43
2023-09-21T15:07:17.051Z,55.02
2023-09-21T15:10:19.872Z,54.58
2023-09-21T15:13:23.381Z,54.91
2023-09-21T15:16:26.803Z,55.46
2023-09-21T15:19:30.606Z,54.99
2023-09-21T15:22:33.695Z,55.17
2023-09-21T15:25:37.256Z,55.07
2023-09-21T15:28:40.217Z,55.57
2023-09-21T15:31:43.724Z,56.45
2023-09-21T15:34:50.274Z,56.83
2023-09-21T15:37:56.462Z,56.38
2023-09-21T15:40:59.602Z,56.84
2023-09-21T15:44:04.494Z,56.73
2023-09-21T15:50:16.482Z,57.79
2023-09-21T15:53:20.951Z,58.39
2023-09-21T15:56:24.251Z,58.75
2023-09-21T15:59:28.558Z,58.92
2023-09-21T16:02:32.531Z,58.72
2023-09-21T16:05:37.723Z,59.57
2023-09-21T16:08:41.322Z,59.44
2023-09-21T16:11:45.020Z,59.72
2023-09-21T16:14:49.242Z,60.04
2023-09-21T16:17:54.326Z,60.22
2023-09-21T16:20:57.909Z,60.76
2023-09-21T16:24:02.049Z,60.44
2023-09-21T16:27:05.907Z,60.22
2023-09-21T16:30:10.924Z,60.44
2023-09-21T16:33:14.803Z,60.52
2023-09-21T16:36:21.387Z,60.42
2023-09-21T16:39:26.379Z,60.52
2023-09-21T16:42:30.739Z,60.44
2023-09-21T16:45:40.507Z,60.66
2023-09-21T16:48:45.921Z,60.52
2023-09-21T16:51:49.784Z,60.03
2023-09-21T16:54:54.539Z,59.81
2023-09-21T16:57:58.629Z,60.06
2023-09-21T17:01:02.236Z,59.85
2023-09-21T17:04:07.059Z,59.64
2023-09-21T17:07:13.184Z,60.13
2023-09-21T17:10:16.568Z,60.83
2023-09-21T17:13:22.093Z,64.16
2023-09-21T17:16:30.022Z,66.61
2023-09-21T17:19:34.042Z,67.84
2023-09-21T17:22:38.483Z,68.22
2023-09-21T17:25:42.110Z,68.18
2023-09-21T17:28:45.497Z,68.04
2023-09-21T17:31:49.675Z,67.92
2023-09-21T17:34:54.460Z,67.97
2023-09-21T17:37:58.218Z,67.49
2023-09-21T17:41:05.124Z,67.61
2023-09-21T17:44:09.495Z,67.66
2023-09-21T17:47:14.197Z,67.85
2023-09-21T17:50:19.052Z,68.18
2023-09-21T17:53:22.816Z,68.21
2023-09-21T17:56:27.774Z,68.25
2023-09-21T17:59:32.045Z,68.28
2023-09-21T18:02:37.771Z,67.92
2023-09-21T18:05:42.295Z,67.97
2023-09-21T18:08:46.863Z,67.81
2023-09-21T18:11:52.009Z,68.26
2023-09-21T18:14:56.844Z,67.78
2023-09-21T18:18:02.423Z,67.48
2023-09-21T18:21:08.966Z,67.64
2023-09-21T18:24:14.264Z,68.36
2023-09-21T18:27:18.905Z,68.59
2023-09-21T18:30:25.292Z,69.04
2023-09-21T18:33:30.239Z,68.81
2023-09-21T18:36:36.715Z,68.91
2023-09-21T18:39:40.924Z,68.64
2023-09-21T18:42:49.879Z,68.76
2023-09-21T18:45:54.876Z,68.62
2023-09-21T18:49:02.337Z,68.38
2023-09-21T18:52:09.293Z,68.41
2023-09-21T18:55:16.018Z,68.68
2023-09-21T18:58:22.335Z,68.93
2023-09-21T19:01:27.930Z,69.00
2023-09-21T19:04:33.798Z,68.95
2023-09-21T19:07:44.262Z,68.66
2023-09-21T19:10:49.125Z,66.90
2023-09-21T19:13:58.052Z,66.22
2023-09-21T19:17:04.867Z,65.21
2023-09-21T19:20:11.890Z,64.76
2023-09-21T19:23:17.735Z,64.79
2023-09-21T19:26:26.104Z,65.07
2023-09-21T19:29:30.504Z,65.13
2023-09-21T19:32:36.701Z,65.68
2023-09-21T19:35:41.049Z,66.57
2023-09-21T19:38:46.787Z,67.01
2023-09-21T19:41:50.998Z,67.76
2023-09-21T19:44:57.944Z,68.15
2023-09-21T19:48:02.112Z,68.35
2023-09-21T19:51:07.274Z,68.73
2023-09-21T19:54:12.875Z,68.96
2023-09-21T19:57:17.709Z,69.52
2023-09-21T20:00:24.655Z,69.94
2023-09-21T20:03:31.478Z,70.52
2023-09-21T20:06:36.112Z,71.23
2023-09-21T20:09:41.845Z,71.90
2023-09-21T20:12:46.809Z,72.37
2023-09-21T20:15:51.343Z,72.89
2023-09-21T20:18:55.619Z,73.30
2023-09-21T20:22:00.216Z,73.50
2023-09-21T20:25:04.618Z,74.06
2023-09-21T20:28:08.857Z,74.72
2023-09-21T20:31:12.132Z,75.42
2023-09-21T20:34:16.622Z,75.95
2023-09-21T20:37:21.723Z,75.99
2023-09-21T20:40:26.080Z,76.29
2023-09-21T20:43:28.978Z,76.72
2023-09-21T20:46:33.459Z,77.00
2023-09-21T20:49:36.321Z,77.09
2023-09-21T20:52:39.842Z,77.60
2023-09-21T20:55:45.645Z,77.76
2023-09-21T20:58:51.438Z,78.33
2023-09-21T21:01:54.317Z,78.43
2023-09-21T21:04:57.404Z,78.38
2023-09-21T21:08:00.383Z,78.82
2023-09-21T21:11:03.450Z,79.02
2023-09-21T21:14:06.238Z,79.66
2023-09-21T21:17:10.142Z,79.66
2023-09-21T21:20:13.040Z,80.07
2023-09-21T21:23:16.455Z,80.22
2023-09-21T21:26:19.276Z,80.34
2023-09-21T21:29:22.744Z,80.40
2023-09-21T21:32:25.809Z,80.14
2023-09-21T21:35:28.847Z,80.04
2023-09-21T21:38:31.645Z,79.91
2023-09-21T21:41:34.775Z,79.60
2023-09-21T21:44:37.690Z,79.40
2023-09-21T21:47:42.282Z,79.21
2023-09-21T21:50:45.158Z,79.32
2023-09-21T21:53:48.374Z,79.25
2023-09-21T21:56:51.999Z,79.11
2023-09-21T21:59:55.169Z,79.20
2023-09-21T22:02:59.915Z,79.12
2023-09-21T22:06:03.385Z,79.40
2023-09-21T22:09:06.425Z,79.21
2023-09-21T22:12:12.801Z,79.19
2023-09-21T22:15:16.273Z,79.42
2023-09-21T22:21:23.868Z,79.71
2023-09-21T22:24:27.041Z,79.64
2023-09-21T22:27:29.858Z,79.91
2023-09-21T22:30:32.992Z,79.85
2023-09-21T22:33:35.901Z,80.40
2023-09-21T22:36:39.381Z,80.21
2023-09-21T22:39:42.173Z,80.70
2023-09-21T22:42:49.522Z,81.04
2023-09-21T22:45:53.052Z,81.12
2023-09-21T22:48:59.266Z,80.80
2023-09-21T22:52:02.185Z,80.68
2023-09-21T22:55:05.528Z,80.50
2023-09-21T22:58:08.440Z,80.55
2023-09-21T23:01:11.913Z,80.20
2023-09-21T23:04:14.881Z,80.03
2023-09-21T23:07:19.170Z,79.87
2023-09-21T23:10:23.088Z,80.41
2023-09-21T23:13:26.345Z,80.54
2023-09-21T23:16:29.191Z,80.64
2023-09-21T23:19:32.295Z,80.80
2023-09-21T23:22:35.034Z,80.86
2023-09-21T23:25:37.996Z,80.87
2023-09-21T23:28:41.969Z,81.11
2023-09-21T23:31:46.240Z,81.48
2023-09-21T23:34:49.118Z,81.75
2023-09-21T23:37:52.245Z,81.95
2023-09-21T23:40:55.001Z,82.34
2023-09-21T23:43:58.125Z,82.40
2023-09-21T23:47:00.930Z,82.62
2023-09-21T23:50:04.380Z,82.85
2023-09-21T23:53:07.828Z,83.11
2023-09-21T23:56:12.412Z,83.35
2023-09-21T23:59:16.125Z,83.17
